Main page
METAR-TAF:

METAR-TAF

Airports :

Tunis–Carthage International Airport

Tunis, Tunisia

latitude: 36-50N, longitude: 010-14E, elevation: 3 m

Current weather observation

The report was made 33 minutes ago, at 14:00 UTC
Wind 4 kt from the Northeast, varying between North/Northwest and East/Southeast
Temperature 33°C
Humidity 44%
Pressure 1011 hPa
Visibility 10 km or more
Few clouds at a height of 2600 ft

METAR: DTTA 221400Z 05004KT 330V110 9999 FEW026 33/19 Q1011 NOSIG

Time: 15:33 (14:33 UTC)

Forecast

The report was made 3 hours and 23 minutes ago, at 11:10 UTC
Forecast valid from 22 at 12 UTC to 23 at 12 UTC
Wind 10 kt from the North
Visibility 10 km or more
Few clouds at a height of 3300 ft
Probability 30% :
Temporary
from 23 at 02 UTC to 23 at 10 UTC
Wind 17 kt from the Northwest with gusts up to 27 kt
Visibility: 4000 m
Few clouds at a height of 2600 ft, Towering cumulus.
rain showers

TAF: DTTA 221110Z 2212/2312 01010KT 9999 FEW033 PROB30 TEMPO 2302/2310 32017G27KT 4000 SHRA FEW026TCU

Weather observations and forecasts of more than 4000 airports (METAR and TAF reports).

The available stations are represented by yellow and red dots on the map.

Hover mouse over dot to see the name of the station.

Then click to see weather observations and forecasts.

To change the map : click on the green buttons with a black cross to zoom in, on the green button with a dash to zoom out, or on the green arrows for adjacent maps.


METAR-TAF: